sensor_id;sensor_type;location;lat;lon;timestamp;temperature;humidity
52725;DHT22;38621;52.830;6.914;2022-09-02T00:00:54;14.00;99.90
52725;DHT22;38621;52.830;6.914;2022-09-02T00:03:29;14.00;99.90
52725;DHT22;38621;52.830;6.914;2022-09-02T00:05:56;13.90;99.90
52725;DHT22;38621;52.830;6.914;2022-09-02T00:08:22;13.90;99.90
52725;DHT22;38621;52.830;6.914;2022-09-02T00:10:48;13.90;99.90
52725;DHT22;38621;52.830;6.914;2022-09-02T00:13:16;13.90;99.90
52725;DHT22;38621;52.830;6.914;2022-09-02T00:15:44;13.90;99.90
52725;DHT22;38621;52.830;6.914;2022-09-02T00:18:10;13.80;99.90
52725;DHT22;38621;52.830;6.914;2022-09-02T00:20:38;13.80;99.90
52725;DHT22;38621;52.830;6.914;2022-09-02T00:23:04;13.80;99.90
52725;DHT22;38621;52.830;6.914;2022-09-02T00:25:31;13.80;99.90
52725;DHT22;38621;52.830;6.914;2022-09-02T00:27:56;13.80;99.90
52725;DHT22;38621;52.830;6.914;2022-09-02T00:30:22;13.70;99.90
52725;DHT22;38621;52.830;6.914;2022-09-02T00:32:48;13.70;99.90
52725;DHT22;38621;52.830;6.914;2022-09-02T00:35:14;13.70;99.90
52725;DHT22;38621;52.830;6.914;2022-09-02T00:37:39;13.70;99.90
52725;DHT22;38621;52.830;6.914;2022-09-02T00:40:06;13.70;99.90
52725;DHT22;38621;52.830;6.914;2022-09-02T00:42:33;13.70;99.90
52725;DHT22;38621;52.830;6.914;2022-09-02T00:44:59;13.70;99.90
52725;DHT22;38621;52.830;6.914;2022-09-02T00:47:26;13.60;99.90
52725;DHT22;38621;52.830;6.914;2022-09-02T00:49:52;13.60;99.90
52725;DHT22;38621;52.830;6.914;2022-09-02T00:52:29;13.50;99.90
52725;DHT22;38621;52.830;6.914;2022-09-02T00:55:01;13.50;99.90
52725;DHT22;38621;52.830;6.914;2022-09-02T00:57:31;13.50;99.90
52725;DHT22;38621;52.830;6.914;2022-09-02T01:02:26;13.40;99.90
52725;DHT22;38621;52.830;6.914;2022-09-02T01:04:53;13.40;99.90
52725;DHT22;38621;52.830;6.914;2022-09-02T01:07:28;13.30;99.90
52725;DHT22;38621;52.830;6.914;2022-09-02T01:09:55;13.30;99.90
52725;DHT22;38621;52.830;6.914;2022-09-02T01:12:22;13.20;99.90
52725;DHT22;38621;52.830;6.914;2022-09-02T01:14:48;13.20;99.90
52725;DHT22;38621;52.830;6.914;2022-09-02T01:17:14;13.20;99.90
52725;DHT22;38621;52.830;6.914;2022-09-02T01:19:48;13.10;99.90
52725;DHT22;38621;52.830;6.914;2022-09-02T01:22:20;13.10;99.90
52725;DHT22;38621;52.830;6.914;2022-09-02T01:24:47;13.10;99.90
52725;DHT22;38621;52.830;6.914;2022-09-02T01:27:18;13.10;99.90
52725;DHT22;38621;52.830;6.914;2022-09-02T01:29:45;13.10;99.90
52725;DHT22;38621;52.830;6.914;2022-09-02T01:32:11;13.10;99.90
52725;DHT22;38621;52.830;6.914;2022-09-02T01:34:37;13.00;99.90
52725;DHT22;38621;52.830;6.914;2022-09-02T01:37:03;13.00;99.90
52725;DHT22;38621;52.830;6.914;2022-09-02T01:39:29;13.00;99.90
52725;DHT22;38621;52.830;6.914;2022-09-02T01:41:55;13.00;99.90
52725;DHT22;38621;52.830;6.914;2022-09-02T01:44:21;13.00;99.90
52725;DHT22;38621;52.830;6.914;2022-09-02T01:46:46;13.00;99.90
52725;DHT22;38621;52.830;6.914;2022-09-02T01:49:12;12.90;99.90
52725;DHT22;38621;52.830;6.914;2022-09-02T01:51:38;12.90;99.90
52725;DHT22;38621;52.830;6.914;2022-09-02T01:54:04;12.90;99.90
52725;DHT22;38621;52.830;6.914;2022-09-02T01:56:30;12.90;99.90
52725;DHT22;38621;52.830;6.914;2022-09-02T01:58:56;12.90;99.90
52725;DHT22;38621;52.830;6.914;2022-09-02T02:01:22;12.80;99.90
52725;DHT22;38621;52.830;6.914;2022-09-02T02:03:48;12.80;99.90
52725;DHT22;38621;52.830;6.914;2022-09-02T02:06:15;12.80;99.90
52725;DHT22;38621;52.830;6.914;2022-09-02T02:08:42;12.80;99.90
52725;DHT22;38621;52.830;6.914;2022-09-02T02:11:08;12.70;99.90
52725;DHT22;38621;52.830;6.914;2022-09-02T02:13:35;12.70;99.90
52725;DHT22;38621;52.830;6.914;2022-09-02T02:16:02;12.70;99.90
52725;DHT22;38621;52.830;6.914;2022-09-02T02:18:27;12.70;99.90
52725;DHT22;38621;52.830;6.914;2022-09-02T02:20:54;12.70;99.90
52725;DHT22;38621;52.830;6.914;2022-09-02T02:23:20;12.70;99.90
52725;DHT22;38621;52.830;6.914;2022-09-02T02:25:48;12.70;99.90
52725;DHT22;38621;52.830;6.914;2022-09-02T02:28:13;12.70;99.90
52725;DHT22;38621;52.830;6.914;2022-09-02T02:30:39;12.70;99.90
52725;DHT22;38621;52.830;6.914;2022-09-02T02:33:05;12.70;99.90
52725;DHT22;38621;52.830;6.914;2022-09-02T02:35:30;12.70;99.90
52725;DHT22;38621;52.830;6.914;2022-09-02T02:37:56;12.70;99.90
52725;DHT22;38621;52.830;6.914;2022-09-02T02:40:24;12.70;99.90
52725;DHT22;38621;52.830;6.914;2022-09-02T02:42:51;12.60;99.90
52725;DHT22;38621;52.830;6.914;2022-09-02T02:45:20;12.60;99.90
52725;DHT22;38621;52.830;6.914;2022-09-02T02:47:45;12.60;99.90
52725;DHT22;38621;52.830;6.914;2022-09-02T02:50:14;12.60;99.90
52725;DHT22;38621;52.830;6.914;2022-09-02T02:52:40;12.60;99.90
52725;DHT22;38621;52.830;6.914;2022-09-02T02:55:07;12.50;99.90
52725;DHT22;38621;52.830;6.914;2022-09-02T02:57:34;12.50;99.90
52725;DHT22;38621;52.830;6.914;2022-09-02T03:02:37;12.50;99.90
52725;DHT22;38621;52.830;6.914;2022-09-02T03:05:04;12.40;99.90
52725;DHT22;38621;52.830;6.914;2022-09-02T03:07:30;12.40;99.90
52725;DHT22;38621;52.830;6.914;2022-09-02T03:09:55;12.40;99.90
52725;DHT22;38621;52.830;6.914;2022-09-02T03:12:21;12.40;99.90
52725;DHT22;38621;52.830;6.914;2022-09-02T03:14:48;12.40;99.90
52725;DHT22;38621;52.830;6.914;2022-09-02T03:17:13;12.30;99.90
52725;DHT22;38621;52.830;6.914;2022-09-02T03:19:39;12.30;99.90
52725;DHT22;38621;52.830;6.914;2022-09-02T03:22:06;12.30;99.90
52725;DHT22;38621;52.830;6.914;2022-09-02T03:24:32;12.20;99.90
52725;DHT22;38621;52.830;6.914;2022-09-02T03:26:58;12.20;99.90
52725;DHT22;38621;52.830;6.914;2022-09-02T03:29:23;12.20;99.90
52725;DHT22;38621;52.830;6.914;2022-09-02T03:31:49;12.20;99.90
52725;DHT22;38621;52.830;6.914;2022-09-02T03:34:15;12.10;99.90
52725;DHT22;38621;52.830;6.914;2022-09-02T03:36:40;12.10;99.90
52725;DHT22;38621;52.830;6.914;2022-09-02T03:39:10;12.10;99.90
52725;DHT22;38621;52.830;6.914;2022-09-02T03:41:36;12.00;99.90
52725;DHT22;38621;52.830;6.914;2022-09-02T03:44:02;12.00;99.90
52725;DHT22;38621;52.830;6.914;2022-09-02T03:46:28;12.00;99.90
52725;DHT22;38621;52.830;6.914;2022-09-02T03:48:54;12.00;99.90
52725;DHT22;38621;52.830;6.914;2022-09-02T03:51:22;12.00;99.90
52725;DHT22;38621;52.830;6.914;2022-09-02T03:53:48;11.90;99.90
52725;DHT22;38621;52.830;6.914;2022-09-02T03:56:15;11.90;99.90
52725;DHT22;38621;52.830;6.914;2022-09-02T03:58:43;11.90;99.90
52725;DHT22;38621;52.830;6.914;2022-09-02T04:01:13;11.80;99.90
52725;DHT22;38621;52.830;6.914;2022-09-02T04:03:40;11.80;99.90
52725;DHT22;38621;52.830;6.914;2022-09-02T04:06:09;11.80;99.90
52725;DHT22;38621;52.830;6.914;2022-09-02T04:08:36;11.80;99.90
52725;DHT22;38621;52.830;6.914;2022-09-02T04:11:08;11.80;99.90
52725;DHT22;38621;52.830;6.914;2022-09-02T04:13:35;11.80;99.90
52725;DHT22;38621;52.830;6.914;2022-09-02T04:16:09;11.80;99.90
52725;DHT22;38621;52.830;6.914;2022-09-02T04:18:35;11.80;99.90
52725;DHT22;38621;52.830;6.914;2022-09-02T04:21:01;11.70;99.90
52725;DHT22;38621;52.830;6.914;2022-09-02T04:23:26;11.70;99.90
52725;DHT22;38621;52.830;6.914;2022-09-02T04:25:53;11.70;99.90
52725;DHT22;38621;52.830;6.914;2022-09-02T04:28:19;11.70;99.90
52725;DHT22;38621;52.830;6.914;2022-09-02T04:30:45;11.70;99.90
52725;DHT22;38621;52.830;6.914;2022-09-02T04:33:11;11.70;99.90
52725;DHT22;38621;52.830;6.914;2022-09-02T04:35:42;11.70;99.90
52725;DHT22;38621;52.830;6.914;2022-09-02T04:38:09;11.70;99.90
52725;DHT22;38621;52.830;6.914;2022-09-02T04:40:39;11.70;99.90
52725;DHT22;38621;52.830;6.914;2022-09-02T04:43:05;11.70;99.90
52725;DHT22;38621;52.830;6.914;2022-09-02T04:45:31;11.70;99.90
52725;DHT22;38621;52.830;6.914;2022-09-02T04:47:56;11.70;99.90
52725;DHT22;38621;52.830;6.914;2022-09-02T04:50:22;11.80;99.90
52725;DHT22;38621;52.830;6.914;2022-09-02T04:52:47;11.80;99.90
52725;DHT22;38621;52.830;6.914;2022-09-02T04:55:13;11.80;99.90
52725;DHT22;38621;52.830;6.914;2022-09-02T04:57:39;11.80;99.90
52725;DHT22;38621;52.830;6.914;2022-09-02T05:00:07;11.70;99.90
52725;DHT22;38621;52.830;6.914;2022-09-02T05:02:33;11.80;99.90
52725;DHT22;38621;52.830;6.914;2022-09-02T05:04:59;11.80;99.90
52725;DHT22;38621;52.830;6.914;2022-09-02T05:07:24;11.80;99.90
52725;DHT22;38621;52.830;6.914;2022-09-02T05:09:56;11.80;99.90
52725;DHT22;38621;52.830;6.914;2022-09-02T05:12:22;11.80;99.90
52725;DHT22;38621;52.830;6.914;2022-09-02T05:14:50;11.80;99.90
52725;DHT22;38621;52.830;6.914;2022-09-02T05:17:16;11.80;99.90
52725;DHT22;38621;52.830;6.914;2022-09-02T05:19:41;11.80;99.90
52725;DHT22;38621;52.830;6.914;2022-09-02T05:22:07;11.80;99.90
52725;DHT22;38621;52.830;6.914;2022-09-02T05:24:33;11.80;99.90
52725;DHT22;38621;52.830;6.914;2022-09-02T05:26:58;11.80;99.90
52725;DHT22;38621;52.830;6.914;2022-09-02T05:29:24;11.80;99.90
52725;DHT22;38621;52.830;6.914;2022-09-02T05:31:51;11.80;99.90
52725;DHT22;38621;52.830;6.914;2022-09-02T05:34:17;11.90;99.90
52725;DHT22;38621;52.830;6.914;2022-09-02T05:36:43;11.90;99.90
52725;DHT22;38621;52.830;6.914;2022-09-02T05:39:09;11.90;99.90
52725;DHT22;38621;52.830;6.914;2022-09-02T05:41:35;12.00;99.90
52725;DHT22;38621;52.830;6.914;2022-09-02T05:44:02;12.00;99.90
52725;DHT22;38621;52.830;6.914;2022-09-02T05:46:28;12.10;99.90
52725;DHT22;38621;52.830;6.914;2022-09-02T05:48:55;12.20;99.90
52725;DHT22;38621;52.830;6.914;2022-09-02T05:51:40;12.20;99.90
52725;DHT22;38621;52.830;6.914;2022-09-02T05:54:08;12.30;99.90
52725;DHT22;38621;52.830;6.914;2022-09-02T05:56:36;12.50;99.90
52725;DHT22;38621;52.830;6.914;2022-09-02T05:59:02;12.50;99.90
52725;DHT22;38621;52.830;6.914;2022-09-02T06:01:28;12.60;99.90
52725;DHT22;38621;52.830;6.914;2022-09-02T06:03:54;12.80;99.90
52725;DHT22;38621;52.830;6.914;2022-09-02T06:06:21;12.90;99.90
52725;DHT22;38621;52.830;6.914;2022-09-02T06:08:49;13.00;99.90
52725;DHT22;38621;52.830;6.914;2022-09-02T06:11:14;13.10;99.90
52725;DHT22;38621;52.830;6.914;2022-09-02T06:13:42;13.20;99.90
52725;DHT22;38621;52.830;6.914;2022-09-02T06:16:11;13.40;99.90
52725;DHT22;38621;52.830;6.914;2022-09-02T06:18:37;13.50;99.90
52725;DHT22;38621;52.830;6.914;2022-09-02T06:21:04;13.60;99.90
52725;DHT22;38621;52.830;6.914;2022-09-02T06:23:30;13.70;99.90
52725;DHT22;38621;52.830;6.914;2022-09-02T06:25:55;13.80;99.90
52725;DHT22;38621;52.830;6.914;2022-09-02T06:28:21;14.00;99.90
52725;DHT22;38621;52.830;6.914;2022-09-02T06:30:47;14.10;99.90
52725;DHT22;38621;52.830;6.914;2022-09-02T06:33:13;14.20;99.90
52725;DHT22;38621;52.830;6.914;2022-09-02T06:35:42;14.20;99.90
52725;DHT22;38621;52.830;6.914;2022-09-02T06:38:09;14.40;99.90
52725;DHT22;38621;52.830;6.914;2022-09-02T06:40:36;14.50;99.90
52725;DHT22;38621;52.830;6.914;2022-09-02T06:43:02;14.50;99.90
52725;DHT22;38621;52.830;6.914;2022-09-02T06:45:28;14.70;99.90
52725;DHT22;38621;52.830;6.914;2022-09-02T06:47:55;14.80;99.90
52725;DHT22;38621;52.830;6.914;2022-09-02T06:50:21;14.90;99.90
52725;DHT22;38621;52.830;6.914;2022-09-02T06:52:47;15.00;99.90
52725;DHT22;38621;52.830;6.914;2022-09-02T06:55:13;15.10;99.90
52725;DHT22;38621;52.830;6.914;2022-09-02T06:57:40;15.20;99.90
52725;DHT22;38621;52.830;6.914;2022-09-02T07:00:08;15.30;99.90
52725;DHT22;38621;52.830;6.914;2022-09-02T07:02:36;15.50;99.90
52725;DHT22;38621;52.830;6.914;2022-09-02T07:05:02;15.60;99.90
52725;DHT22;38621;52.830;6.914;2022-09-02T07:07:41;15.70;99.90
52725;DHT22;38621;52.830;6.914;2022-09-02T07:10:11;15.80;99.90
52725;DHT22;38621;52.830;6.914;2022-09-02T07:12:39;15.90;99.90
52725;DHT22;38621;52.830;6.914;2022-09-02T07:15:05;16.00;99.90
52725;DHT22;38621;52.830;6.914;2022-09-02T07:17:32;16.10;99.90
52725;DHT22;38621;52.830;6.914;2022-09-02T07:19:58;16.20;99.90
52725;DHT22;38621;52.830;6.914;2022-09-02T07:22:28;16.30;99.90
52725;DHT22;38621;52.830;6.914;2022-09-02T07:24:54;16.50;99.90
52725;DHT22;38621;52.830;6.914;2022-09-02T07:27:20;16.60;99.90
52725;DHT22;38621;52.830;6.914;2022-09-02T07:29:47;16.70;99.90
52725;DHT22;38621;52.830;6.914;2022-09-02T07:32:17;16.80;99.90
52725;DHT22;38621;52.830;6.914;2022-09-02T07:34:43;16.90;99.90
52725;DHT22;38621;52.830;6.914;2022-09-02T07:37:09;17.10;99.90
52725;DHT22;38621;52.830;6.914;2022-09-02T07:39:35;17.20;99.90
52725;DHT22;38621;52.830;6.914;2022-09-02T07:42:01;17.30;99.90
52725;DHT22;38621;52.830;6.914;2022-09-02T07:44:27;17.40;99.90
52725;DHT22;38621;52.830;6.914;2022-09-02T07:46:52;17.50;99.90
52725;DHT22;38621;52.830;6.914;2022-09-02T07:49:19;17.60;99.90
52725;DHT22;38621;52.830;6.914;2022-09-02T07:51:47;17.80;99.90
52725;DHT22;38621;52.830;6.914;2022-09-02T07:54:19;17.90;99.90
52725;DHT22;38621;52.830;6.914;2022-09-02T07:56:45;18.00;99.90
52725;DHT22;38621;52.830;6.914;2022-09-02T07:59:11;18.10;99.90
52725;DHT22;38621;52.830;6.914;2022-09-02T08:01:37;18.10;99.90
52725;DHT22;38621;52.830;6.914;2022-09-02T08:04:04;18.20;99.90
52725;DHT22;38621;52.830;6.914;2022-09-02T08:06:31;18.30;99.90
52725;DHT22;38621;52.830;6.914;2022-09-02T08:08:58;18.30;99.90
52725;DHT22;38621;52.830;6.914;2022-09-02T08:11:24;18.40;99.90
52725;DHT22;38621;52.830;6.914;2022-09-02T08:13:50;18.50;99.90
52725;DHT22;38621;52.830;6.914;2022-09-02T08:16:16;18.60;99.90
52725;DHT22;38621;52.830;6.914;2022-09-02T08:18:42;18.70;99.90
52725;DHT22;38621;52.830;6.914;2022-09-02T08:21:08;18.80;99.90
52725;DHT22;38621;52.830;6.914;2022-09-02T08:23:34;18.90;99.90
52725;DHT22;38621;52.830;6.914;2022-09-02T08:26:00;18.90;99.90
52725;DHT22;38621;52.830;6.914;2022-09-02T08:28:27;19.00;99.90
52725;DHT22;38621;52.830;6.914;2022-09-02T08:30:54;19.10;99.90
52725;DHT22;38621;52.830;6.914;2022-09-02T08:33:24;19.30;99.90
52725;DHT22;38621;52.830;6.914;2022-09-02T08:35:49;19.40;99.90
52725;DHT22;38621;52.830;6.914;2022-09-02T08:38:15;19.60;99.90
52725;DHT22;38621;52.830;6.914;2022-09-02T08:40:41;19.70;99.90
52725;DHT22;38621;52.830;6.914;2022-09-02T08:43:35;19.90;99.90
52725;DHT22;38621;52.830;6.914;2022-09-02T08:46:04;20.10;99.90
52725;DHT22;38621;52.830;6.914;2022-09-02T08:49:06;20.20;99.90
52725;DHT22;38621;52.830;6.914;2022-09-02T08:51:41;20.30;99.90
52725;DHT22;38621;52.830;6.914;2022-09-02T08:54:30;20.40;99.90
52725;DHT22;38621;52.830;6.914;2022-09-02T08:56:57;20.50;99.90
52725;DHT22;38621;52.830;6.914;2022-09-02T08:59:25;20.70;99.90
52725;DHT22;38621;52.830;6.914;2022-09-02T09:02:04;20.80;99.90
52725;DHT22;38621;52.830;6.914;2022-09-02T09:07:23;21.00;99.90
52725;DHT22;38621;52.830;6.914;2022-09-02T09:09:58;21.10;99.90
52725;DHT22;38621;52.830;6.914;2022-09-02T09:12:41;21.10;99.90
52725;DHT22;38621;52.830;6.914;2022-09-02T09:15:18;21.30;99.90
52725;DHT22;38621;52.830;6.914;2022-09-02T09:17:54;21.40;99.90
52725;DHT22;38621;52.830;6.914;2022-09-02T09:22:55;21.60;99.90
52725;DHT22;38621;52.830;6.914;2022-09-02T09:25:24;21.70;99.90
52725;DHT22;38621;52.830;6.914;2022-09-02T09:27:57;21.90;99.90
52725;DHT22;38621;52.830;6.914;2022-09-02T09:30:23;22.00;99.90
52725;DHT22;38621;52.830;6.914;2022-09-02T09:32:51;22.10;99.90
52725;DHT22;38621;52.830;6.914;2022-09-02T09:35:22;22.20;99.90
52725;DHT22;38621;52.830;6.914;2022-09-02T09:37:50;22.20;99.90
52725;DHT22;38621;52.830;6.914;2022-09-02T09:40:22;22.40;99.90
52725;DHT22;38621;52.830;6.914;2022-09-02T09:45:45;22.50;99.90
52725;DHT22;38621;52.830;6.914;2022-09-02T09:48:24;22.50;99.90
52725;DHT22;38621;52.830;6.914;2022-09-02T09:56:01;22.80;99.90
52725;DHT22;38621;52.830;6.914;2022-09-02T10:03:40;23.00;99.90
52725;DHT22;38621;52.830;6.914;2022-09-02T10:09:00;23.00;99.90
52725;DHT22;38621;52.830;6.914;2022-09-02T10:11:29;23.00;99.90
52725;DHT22;38621;52.830;6.914;2022-09-02T10:14:07;23.00;99.90
52725;DHT22;38621;52.830;6.914;2022-09-02T10:27:06;23.00;99.90
52725;DHT22;38621;52.830;6.914;2022-09-02T10:37:24;23.20;99.90
52725;DHT22;38621;52.830;6.914;2022-09-02T10:40:16;23.20;99.90
52725;DHT22;38621;52.830;6.914;2022-09-02T10:45:35;23.30;99.90
52725;DHT22;38621;52.830;6.914;2022-09-02T10:48:20;23.30;99.90
52725;DHT22;38621;52.830;6.914;2022-09-02T10:50:54;23.40;99.90
52725;DHT22;38621;52.830;6.914;2022-09-02T10:53:45;23.40;99.90
52725;DHT22;38621;52.830;6.914;2022-09-02T10:56:24;23.50;99.90
52725;DHT22;38621;52.830;6.914;2022-09-02T10:59:13;23.50;99.90
52725;DHT22;38621;52.830;6.914;2022-09-02T11:01:47;23.50;99.80
52725;DHT22;38621;52.830;6.914;2022-09-02T11:04:36;23.60;99.60
52725;DHT22;38621;52.830;6.914;2022-09-02T11:07:14;23.60;99.30
52725;DHT22;38621;52.830;6.914;2022-09-02T11:09:54;23.60;99.30
52725;DHT22;38621;52.830;6.914;2022-09-02T11:12:44;23.60;99.50
52725;DHT22;38621;52.830;6.914;2022-09-02T11:15:14;23.60;98.40
52725;DHT22;38621;52.830;6.914;2022-09-02T11:20:47;23.50;98.20
52725;DHT22;38621;52.830;6.914;2022-09-02T11:23:42;23.60;98.80
52725;DHT22;38621;52.830;6.914;2022-09-02T11:26:16;23.60;98.10
52725;DHT22;38621;52.830;6.914;2022-09-02T11:29:02;23.60;98.60
52725;DHT22;38621;52.830;6.914;2022-09-02T11:35:00;23.70;98.30
52725;DHT22;38621;52.830;6.914;2022-09-02T11:37:14;23.80;97.70
52725;DHT22;38621;52.830;6.914;2022-09-02T11:39:52;23.80;97.70
52725;DHT22;38621;52.830;6.914;2022-09-02T11:53:40;23.70;96.70
52725;DHT22;38621;52.830;6.914;2022-09-02T11:58:37;23.70;96.60
52725;DHT22;38621;52.830;6.914;2022-09-02T12:04:33;23.70;97.00
52725;DHT22;38621;52.830;6.914;2022-09-02T12:06:34;23.70;96.40
52725;DHT22;38621;52.830;6.914;2022-09-02T12:09:05;23.60;96.60
52725;DHT22;38621;52.830;6.914;2022-09-02T12:11:46;23.60;96.10
52725;DHT22;38621;52.830;6.914;2022-09-02T12:17:33;23.60;95.90
52725;DHT22;38621;52.830;6.914;2022-09-02T12:20:03;23.70;96.30
52725;DHT22;38621;52.830;6.914;2022-09-02T12:22:39;23.70;96.00
52725;DHT22;38621;52.830;6.914;2022-09-02T12:28:07;24.00;95.60
52725;DHT22;38621;52.830;6.914;2022-09-02T12:33:41;24.10;95.80
52725;DHT22;38621;52.830;6.914;2022-09-02T12:38:53;24.10;95.60
52725;DHT22;38621;52.830;6.914;2022-09-02T12:41:26;24.10;95.50
52725;DHT22;38621;52.830;6.914;2022-09-02T12:49:35;24.00;95.10
52725;DHT22;38621;52.830;6.914;2022-09-02T12:52:37;24.10;94.80
52725;DHT22;38621;52.830;6.914;2022-09-02T12:54:55;24.50;94.70
52725;DHT22;38621;52.830;6.914;2022-09-02T12:57:40;24.60;94.60
52725;DHT22;38621;52.830;6.914;2022-09-02T13:00:07;24.50;94.20
52725;DHT22;38621;52.830;6.914;2022-09-02T13:05:37;24.30;94.40
52725;DHT22;38621;52.830;6.914;2022-09-02T13:08:39;24.30;94.20
52725;DHT22;38621;52.830;6.914;2022-09-02T13:11:55;24.30;94.10
52725;DHT22;38621;52.830;6.914;2022-09-02T13:18:00;24.20;94.20
52725;DHT22;38621;52.830;6.914;2022-09-02T13:32:09;23.90;93.90
52725;DHT22;38621;52.830;6.914;2022-09-02T13:34:44;23.80;93.80
52725;DHT22;38621;52.830;6.914;2022-09-02T13:37:39;23.90;93.50
52725;DHT22;38621;52.830;6.914;2022-09-02T13:40:25;23.90;93.30
52725;DHT22;38621;52.830;6.914;2022-09-02T13:42:57;23.90;94.00
52725;DHT22;38621;52.830;6.914;2022-09-02T13:45:25;23.90;93.80
52725;DHT22;38621;52.830;6.914;2022-09-02T13:47:56;24.00;93.60
52725;DHT22;38621;52.830;6.914;2022-09-02T13:50:28;24.10;93.50
52725;DHT22;38621;52.830;6.914;2022-09-02T13:52:56;24.10;93.70
52725;DHT22;38621;52.830;6.914;2022-09-02T13:55:23;24.10;93.60
52725;DHT22;38621;52.830;6.914;2022-09-02T13:57:56;24.20;93.70
52725;DHT22;38621;52.830;6.914;2022-09-02T14:00:36;24.30;93.70
52725;DHT22;38621;52.830;6.914;2022-09-02T14:05:33;24.30;93.40
52725;DHT22;38621;52.830;6.914;2022-09-02T14:08:02;24.30;93.40
52725;DHT22;38621;52.830;6.914;2022-09-02T14:10:30;24.20;93.40
52725;DHT22;38621;52.830;6.914;2022-09-02T14:12:58;24.30;93.60
52725;DHT22;38621;52.830;6.914;2022-09-02T14:15:28;24.10;93.60
52725;DHT22;38621;52.830;6.914;2022-09-02T14:18:14;24.00;93.70
52725;DHT22;38621;52.830;6.914;2022-09-02T14:23:26;23.70;93.50
52725;DHT22;38621;52.830;6.914;2022-09-02T14:25:55;23.70;93.80
52725;DHT22;38621;52.830;6.914;2022-09-02T14:28:32;23.70;93.30
52725;DHT22;38621;52.830;6.914;2022-09-02T14:31:04;23.70;93.30
52725;DHT22;38621;52.830;6.914;2022-09-02T14:33:41;23.80;93.40
52725;DHT22;38621;52.830;6.914;2022-09-02T14:38:48;23.60;93.30
52725;DHT22;38621;52.830;6.914;2022-09-02T14:43:47;23.50;93.10
52725;DHT22;38621;52.830;6.914;2022-09-02T14:46:36;23.60;93.10
52725;DHT22;38621;52.830;6.914;2022-09-02T14:54:10;23.90;92.90
52725;DHT22;38621;52.830;6.914;2022-09-02T14:56:52;24.00;92.90
52725;DHT22;38621;52.830;6.914;2022-09-02T14:59:19;24.10;92.50
52725;DHT22;38621;52.830;6.914;2022-09-02T15:01:50;24.20;92.60
52725;DHT22;38621;52.830;6.914;2022-09-02T15:04:17;24.20;92.60
52725;DHT22;38621;52.830;6.914;2022-09-02T15:06:44;24.20;92.70
52725;DHT22;38621;52.830;6.914;2022-09-02T15:09:11;24.10;92.90
52725;DHT22;38621;52.830;6.914;2022-09-02T15:11:39;24.10;92.90
52725;DHT22;38621;52.830;6.914;2022-09-02T15:14:06;24.20;92.90
52725;DHT22;38621;52.830;6.914;2022-09-02T15:16:31;24.20;92.80
52725;DHT22;38621;52.830;6.914;2022-09-02T15:18:57;24.20;92.60
52725;DHT22;38621;52.830;6.914;2022-09-02T15:21:23;24.30;92.70
52725;DHT22;38621;52.830;6.914;2022-09-02T15:23:48;24.30;92.40
52725;DHT22;38621;52.830;6.914;2022-09-02T15:26:15;24.30;92.40
52725;DHT22;38621;52.830;6.914;2022-09-02T15:28:41;24.30;92.20
52725;DHT22;38621;52.830;6.914;2022-09-02T15:31:08;24.40;92.00
52725;DHT22;38621;52.830;6.914;2022-09-02T15:33:34;24.40;92.00
52725;DHT22;38621;52.830;6.914;2022-09-02T15:36:11;24.50;92.10
52725;DHT22;38621;52.830;6.914;2022-09-02T15:38:38;24.50;92.20
52725;DHT22;38621;52.830;6.914;2022-09-02T15:41:23;24.50;92.30
52725;DHT22;38621;52.830;6.914;2022-09-02T15:43:50;24.60;92.30
52725;DHT22;38621;52.830;6.914;2022-09-02T15:48:50;24.70;92.70
52725;DHT22;38621;52.830;6.914;2022-09-02T15:51:17;24.50;92.60
52725;DHT22;38621;52.830;6.914;2022-09-02T15:53:43;24.40;92.60
52725;DHT22;38621;52.830;6.914;2022-09-02T15:56:17;24.30;92.70
52725;DHT22;38621;52.830;6.914;2022-09-02T15:58:43;24.20;93.00
52725;DHT22;38621;52.830;6.914;2022-09-02T16:01:09;24.20;93.00
52725;DHT22;38621;52.830;6.914;2022-09-02T16:03:35;24.30;92.90
52725;DHT22;38621;52.830;6.914;2022-09-02T16:06:03;24.30;92.90
52725;DHT22;38621;52.830;6.914;2022-09-02T16:08:28;24.40;92.70
52725;DHT22;38621;52.830;6.914;2022-09-02T16:10:54;24.50;92.50
52725;DHT22;38621;52.830;6.914;2022-09-02T16:13:20;24.50;92.20
52725;DHT22;38621;52.830;6.914;2022-09-02T16:15:46;24.60;92.10
52725;DHT22;38621;52.830;6.914;2022-09-02T16:18:12;24.70;92.30
52725;DHT22;38621;52.830;6.914;2022-09-02T16:20:37;24.70;92.50
52725;DHT22;38621;52.830;6.914;2022-09-02T16:23:03;24.70;92.40
52725;DHT22;38621;52.830;6.914;2022-09-02T16:25:29;24.70;92.40
52725;DHT22;38621;52.830;6.914;2022-09-02T16:27:54;24.60;92.40
52725;DHT22;38621;52.830;6.914;2022-09-02T16:30:22;24.50;92.40
52725;DHT22;38621;52.830;6.914;2022-09-02T16:32:48;24.40;92.60
52725;DHT22;38621;52.830;6.914;2022-09-02T16:35:16;24.30;93.00
52725;DHT22;38621;52.830;6.914;2022-09-02T16:37:41;24.20;92.80
52725;DHT22;38621;52.830;6.914;2022-09-02T16:40:07;24.20;92.90
52725;DHT22;38621;52.830;6.914;2022-09-02T16:42:33;24.10;93.00
52725;DHT22;38621;52.830;6.914;2022-09-02T16:44:59;24.10;93.20
52725;DHT22;38621;52.830;6.914;2022-09-02T16:47:24;24.10;93.30
52725;DHT22;38621;52.830;6.914;2022-09-02T16:49:51;24.20;93.40
52725;DHT22;38621;52.830;6.914;2022-09-02T16:52:16;24.30;93.30
52725;DHT22;38621;52.830;6.914;2022-09-02T16:54:42;24.30;93.50
52725;DHT22;38621;52.830;6.914;2022-09-02T16:57:08;24.40;93.20
52725;DHT22;38621;52.830;6.914;2022-09-02T16:59:34;24.40;93.00
52725;DHT22;38621;52.830;6.914;2022-09-02T17:02:00;24.30;92.90
52725;DHT22;38621;52.830;6.914;2022-09-02T17:04:27;24.20;92.80
52725;DHT22;38621;52.830;6.914;2022-09-02T17:06:53;24.10;93.00
52725;DHT22;38621;52.830;6.914;2022-09-02T17:09:18;24.10;93.10
52725;DHT22;38621;52.830;6.914;2022-09-02T17:11:45;23.90;93.20
52725;DHT22;38621;52.830;6.914;2022-09-02T17:14:13;23.90;93.30
52725;DHT22;38621;52.830;6.914;2022-09-02T17:16:44;23.80;93.20
52725;DHT22;38621;52.830;6.914;2022-09-02T17:19:10;23.70;93.40
52725;DHT22;38621;52.830;6.914;2022-09-02T17:21:45;23.60;93.40
52725;DHT22;38621;52.830;6.914;2022-09-02T17:24:16;23.50;93.30
52725;DHT22;38621;52.830;6.914;2022-09-02T17:26:45;23.40;93.30
52725;DHT22;38621;52.830;6.914;2022-09-02T17:29:13;23.30;93.50
52725;DHT22;38621;52.830;6.914;2022-09-02T17:31:43;23.20;93.50
52725;DHT22;38621;52.830;6.914;2022-09-02T17:34:09;23.10;93.60
52725;DHT22;38621;52.830;6.914;2022-09-02T17:36:37;23.00;93.50
52725;DHT22;38621;52.830;6.914;2022-09-02T17:39:14;23.00;93.40
52725;DHT22;38621;52.830;6.914;2022-09-02T17:41:40;22.90;93.20
52725;DHT22;38621;52.830;6.914;2022-09-02T17:44:29;22.90;93.40
52725;DHT22;38621;52.830;6.914;2022-09-02T17:47:19;22.80;93.50